Aérodrome :
LOGIN :

S'inscrire | Disclaimer

   EN    FR    IT 

 










Légende :    VFR   VFR Marginal   IFR   IFR Intensif   IFR Très Intensif
Visi : 
Plafond : 
>= 8 km
>= 3000ft
5 à 8 km
1000 à 3000 ft
1500m à 5 km
500 à 1000 ft
800 à 1500m
200 à 500 ft
< 800m
< 200 ft
Symboles :   Orages  Brouillard  Fortes neiges  Fortes précipitations  Vent > 20 kt
SIGMETs :   Divers  Orages  Givrage  Turbulence  Onde Orograph.  Cendres Volcan.






- Altitude de l'aérodrome : 468 ft
- Code IATA : GRO


LEGE - Girona Costa Brava

DERNIER METAR :
  • 032000Z 13002KT 9000 RA FEW020 SCT040CB 18/17 Q1005

METARs EXPIRÉS :
  • 031930Z VRB01KT 8000 SHRA FEW015 SCT030CB 18/17 Q1006
  • 031914Z 26004KT 9999 4000N SHRA FEW015 SCT030CB BKN050 18/17 Q1006
  • 031900Z 24005KT 190V290 9999 SHRA FEW015 SCT030TCU BKN050 18/17 Q1006
  • 031830Z 23003KT 190V300 9999 FEW015 SCT030 18/17 Q1005 RERA
  • 031800Z 23005KT 190V260 9000 -SHRA FEW015 BKN030CB 17/17 Q1005
  • 031730Z 25007KT 210V300 9000 -TSRA FEW015 BKN030CB 18/17 Q1005

TAF TAF LEGE
Valide du 03 à 18h jusqu'au 04 à 18h UTC


031700Z 0318/0418 VRB03KT 9999 FEW030 SCT040 TX22/0415Z TN13/0406Z
TEMPO 0318/0418 4000 TSRA SCT030CB BKN040



MET'MAP, la Météo Aéronautique d'un coup d'oeil ! - Copyright ORBIFLY Décembre 2007 - Disclaimer

ORBIFLY MET'MAP TEAM :

Programmation & Développement : Alexandra Zaïnal
Sur une idée originale de : Baudouin d'Aumeries
Assistance à la programmation : Marc-Olivier Méhu
Soutien technique & logistique : Manuel Goepfert

Contact : metmap@orbifly.com




SOURCES & CREDITS :

   NOAA